CST,Max TemperatureF,Mean TemperatureF,Min TemperatureF,Max Dew PointF,MeanDew PointF,Min DewpointF,Max Humidity, Mean Humidity, Min Humidity, Max Sea Level PressureIn, Mean Sea Level PressureIn, Min Sea Level PressureIn, Max VisibilityMiles, Mean VisibilityMiles, Min VisibilityMiles, Max Wind SpeedMPH, Mean Wind SpeedMPH, Max Gust SpeedMPH,PrecipitationIn, CloudCover, Events, WindDirDegrees
2013-12-1,57,44,30,43,35,27,93,74,55,30.15,30.06,29.93,10,10,5,7,3,,0.00,2,,231
2013-12-2,57,44,32,46,38,28,93,82,67,29.92,29.80,29.72,10,8,3,7,2,,0.00,5,,127
2013-12-3,57,45,33,52,44,30,100,87,72,29.77,29.73,29.70,10,6,0,13,3,,0.00,4,,165
2013-12-4,64,53,42,57,51,39,100,88,72,29.84,29.69,29.59,10,6,0,23,7,31,0.00,6,,176
2013-12-5,48,36,23,43,25,18,86,77,65,30.26,30.11,29.84,10,6,0,8,3,16,0.80,7,,316
2013-12-6,23,21,19,18,14,7,86,76,58,30.54,30.35,30.23,10,4,0,0,0,,0.18,8,,-1
2013-12-7,21,14,8,9,5,0,85,62,49,30.69,30.59,30.46,10,10,10,0,0,,0.03,1,,-1
2013-12-8,28,24,19,27,19,9,93,78,63,30.44,30.18,30.02,10,7,2,13,7,18,0.01,8,,94
2013-12-9,28,24,21,25,16,10,86,68,54,30.30,30.24,30.09,10,9,1,10,6,16,0.01,4,,268
2013-12-10,30,18,5,18,11,-2,93,73,51,30.35,30.30,30.25,10,8,1,16,4,20,0.01,2,,232
2013-12-11,24,6,1,21,1,-6,92,79,66,30.64,30.45,30.33,10,9,0,12,2,,0.00,1,,315
2013-12-12,,,,,,,,,,30.64,30.50,30.32,10,10,10,13,3,,0.00,0,,195
2013-12-13,,,,,,,,,,30.31,30.17,30.01,10,9,1,17,4,23,0.07,4,,165
2013-12-14,,,,,,,,,,30.11,29.92,29.82,10,8,2,10,5,18,0.43,8,,349
2013-12-15,,,,,,,,,,30.21,30.14,30.07,10,9,6,16,6,18,0.00,7,,239
2013-12-16,,,,,,,,,,30.09,30.04,30.02,10,8,4,10,6,,0.00,3,,221
2013-12-17,37,30,24,28,26,19,93,78,64,30.28,30.18,30.09,10,7,2,9,4,,0.00,4,,268
2013-12-18,42,30,17,30,24,16,100,73,46,30.29,30.17,30.01,10,10,10,14,4,18,0.00,0,,184
2013-12-19,55,46,37,48,42,30,93,80,70,30.02,29.96,29.88,10,10,10,22,12,28,0.00,3,,190
2013-12-20,62,52,42,59,52,41,94,88,77,29.87,29.83,29.78,10,9,4,21,14,28,0.25,8,,207
2013-12-21,42,38,35,41,36,34,100,94,87,29.83,29.68,29.48,10,7,2,13,5,18,2.54,8,,5
2013-12-22,39,34,30,37,32,27,100,86,70,30.23,29.93,29.62,10,8,1,13,8,17,0.18,8,,270
2013-12-23,30,24,17,27,18,9,86,73,63,30.55,30.43,30.24,10,10,10,9,5,,0.00,7,,303
2013-12-24,24,17,10,12,6,-2,85,63,42,30.64,30.54,30.41,10,10,10,8,4,,0.00,1,,142
2013-12-25,35,27,19,28,20,12,100,73,60,30.41,30.32,30.26,10,10,10,14,6,,0.00,6,,210
2013-12-26,42,32,23,28,26,21,93,75,49,30.43,30.35,30.29,10,9,4,10,5,,0.00,0,,204
2013-12-27,48,37,26,34,29,23,100,78,57,30.41,30.35,30.29,10,10,9,13,5,,0.00,0,,206
2013-12-28,50,37,24,36,30,21,100,73,53,30.29,30.16,29.95,10,9,0,12,6,,0.00,1,,190
2013-12-29,42,32,21,36,26,14,93,80,66,30.24,30.04,29.88,10,10,9,10,7,21,0.00,6,,273
2013-12-30,26,19,12,16,9,3,86,66,40,30.35,30.28,30.24,10,10,8,9,3,,0.00,2,,286
2013-12-31,39,29,19,27,19,14,86,64,48,30.44,30.30,30.24,10,10,10,16,6,17,0.00,1,,209